Time;durP1;ratioP1;P1;durP2;ratioP2;P2;SDS_P1;SDS_P2;PMS_P1;PMS_P2;Temp;Humidity;BMP_temperature;BMP_pressure;BME280_temperature;BME280_humidity;BME280_pressure;Samples;Min_cycle;Max_cycle;Signal;HPM_P1;HPM_P2
2022/04/30 00:02:10;;;;;;;10.85;5.93;;;9.80;99.90;;;;;;5052645;28;20065;-74
2022/04/30 00:04:41;;;;;;;19.17;5.90;;;9.70;99.90;;;;;;5034396;28;20515;-76
2022/04/30 00:07:08;;;;;;;12.30;5.75;;;9.80;99.90;;;;;;5052552;28;20064;-76
2022/04/30 00:09:36;;;;;;;7.60;5.25;;;9.60;99.90;;;;;;5052817;28;20033;-76
2022/04/30 00:12:02;;;;;;;11.25;5.47;;;9.50;99.90;;;;;;5052315;28;20033;-76
2022/04/30 00:14:29;;;;;;;11.27;6.00;;;9.40;99.90;;;;;;5052541;28;20032;-76
2022/04/30 00:16:56;;;;;;;18.00;6.18;;;9.50;99.90;;;;;;5052485;28;20104;-75
2022/04/30 00:19:28;;;;;;;12.30;6.10;;;9.60;99.90;;;;;;5052801;28;20043;-76
2022/04/30 00:21:54;;;;;;;11.23;5.82;;;9.60;99.90;;;;;;5052243;28;20037;-75
2022/04/30 00:24:20;;;;;;;14.13;6.20;;;9.60;99.90;;;;;;5052625;28;20032;-76
2022/04/30 00:26:46;;;;;;;12.23;5.47;;;9.60;99.90;;;;;;5052103;28;20116;-77
2022/04/30 00:29:12;;;;;;;9.15;5.00;;;9.60;99.90;;;;;;5034977;28;20150;-76
2022/04/30 00:31:39;;;;;;;16.00;5.65;;;9.40;99.90;;;;;;5052389;28;20036;-76
2022/04/30 00:34:04;;;;;;;9.85;5.32;;;9.30;99.90;;;;;;5052392;28;20029;-76
2022/04/30 00:36:37;;;;;;;7.80;4.93;;;9.20;99.90;;;;;;5046546;28;20428;-76
2022/04/30 00:39:06;;;;;;;11.60;5.25;;;9.20;99.90;;;;;;5052215;28;20029;-76
2022/04/30 00:41:32;;;;;;;14.73;5.68;;;9.30;99.90;;;;;;5051849;28;20085;-76
2022/04/30 00:43:59;;;;;;;7.07;4.85;;;9.30;99.90;;;;;;5052096;28;20025;-75
2022/04/30 00:46:25;;;;;;;8.43;4.85;;;9.30;99.90;;;;;;5034355;28;20033;-76
2022/04/30 00:48:57;;;;;;;10.07;5.45;;;9.20;99.90;;;;;;5052351;28;20029;-76
2022/04/30 00:51:26;;;;;;;11.30;5.97;;;9.30;99.90;;;;;;5052272;28;20028;-76
2022/04/30 00:53:55;;;;;;;9.60;5.70;;;9.30;99.90;;;;;;5052343;28;20470;-76
2022/04/30 00:56:32;;;;;;;16.02;6.80;;;9.30;99.90;;;;;;5051702;28;20029;-76
2022/04/30 00:59:02;;;;;;;17.42;5.93;;;9.30;99.90;;;;;;5052165;28;20110;-75
2022/04/30 01:01:32;;;;;;;12.40;6.38;;;9.30;99.90;;;;;;5052148;28;20091;-76
2022/04/30 01:04:10;;;;;;;12.25;6.43;;;9.50;99.90;;;;;;5052049;28;20044;-76
2022/04/30 01:06:38;;;;;;;10.20;6.20;;;9.30;99.90;;;;;;5051757;28;20127;-76
2022/04/30 01:09:04;;;;;;;11.45;6.07;;;9.30;99.90;;;;;;5034078;28;20021;-76
2022/04/30 01:11:30;;;;;;;9.60;5.85;;;9.20;99.90;;;;;;5053755;28;20082;-75
2022/04/30 01:13:58;;;;;;;11.45;6.25;;;9.30;99.90;;;;;;5037929;28;20067;-76
2022/04/30 01:16:26;;;;;;;9.82;5.55;;;9.00;99.90;;;;;;5037686;28;20021;-76
2022/04/30 01:18:52;;;;;;;11.43;5.95;;;9.00;99.90;;;;;;5055782;28;20036;-76
2022/04/30 01:21:21;;;;;;;9.23;5.43;;;9.00;99.90;;;;;;5055307;28;20037;-76
2022/04/30 01:23:47;;;;;;;12.00;5.90;;;8.80;99.90;;;;;;5055481;28;20037;-75
2022/04/30 01:26:14;;;;;;;13.15;6.03;;;8.80;99.90;;;;;;5054992;28;20094;-75
2022/04/30 01:28:43;;;;;;;13.63;6.03;;;8.80;99.90;;;;;;5055576;28;20021;-76
2022/04/30 01:37:22;;;;;;;8.57;4.93;;;8.70;99.90;;;;;;5055166;28;20040;-75
2022/04/30 01:39:30;;;;;;;11.13;5.05;;;8.60;99.90;;;;;;5054976;28;20068;-75
2022/04/30 01:42:11;;;;;;;8.27;4.45;;;8.50;99.90;;;;;;5055405;28;20036;-75
2022/04/30 01:44:47;;;;;;;10.90;5.10;;;8.50;99.90;;;;;;5055033;28;20044;-75
2022/04/30 01:47:17;;;;;;;11.48;5.65;;;8.60;99.90;;;;;;5036829;28;20123;-76
2022/04/30 01:49:43;;;;;;;14.68;6.63;;;8.50;99.90;;;;;;5055226;28;20472;-75
2022/04/30 01:52:10;;;;;;;9.98;5.18;;;8.40;99.90;;;;;;5054870;28;20040;-75
2022/04/30 01:54:36;;;;;;;9.98;5.28;;;8.40;99.90;;;;;;5054399;28;20056;-76
2022/04/30 01:57:03;;;;;;;12.63;5.00;;;8.40;99.90;;;;;;5054716;28;20029;-76
2022/04/30 01:59:28;;;;;;;9.43;5.30;;;8.30;99.90;;;;;;5054974;28;20090;-76
2022/04/30 02:01:56;;;;;;;8.05;5.18;;;8.30;99.90;;;;;;5036776;28;20025;-75
2022/04/30 02:04:22;;;;;;;11.70;4.80;;;8.20;99.90;;;;;;5054545;28;20033;-76
2022/04/30 02:06:48;;;;;;;11.85;5.00;;;8.20;99.90;;;;;;5054637;28;20072;-76
2022/04/30 02:09:14;;;;;;;8.20;4.65;;;8.20;99.90;;;;;;5054029;28;20067;-75
2022/04/30 02:11:42;;;;;;;10.25;5.53;;;8.20;99.90;;;;;;5036912;28;20089;-74
2022/04/30 02:14:11;;;;;;;10.77;5.05;;;8.20;99.90;;;;;;5054366;28;20017;-76
2022/04/30 02:16:40;;;;;;;15.93;6.00;;;8.20;99.90;;;;;;5054663;28;20037;-75
2022/04/30 02:19:08;;;;;;;15.05;5.53;;;8.20;99.90;;;;;;5054177;28;20362;-75
2022/04/30 02:21:35;;;;;;;10.45;5.65;;;8.30;99.90;;;;;;5054069;28;20115;-75
2022/04/30 02:24:05;;;;;;;15.55;5.70;;;8.40;99.90;;;;;;5053160;28;20380;-73
2022/04/30 02:26:31;;;;;;;13.70;5.82;;;8.50;99.90;;;;;;5054285;28;20025;-75
2022/04/30 02:28:57;;;;;;;15.07;5.97;;;8.50;99.90;;;;;;5054140;28;20027;-76
2022/04/30 02:31:25;;;;;;;17.23;6.35;;;8.50;99.90;;;;;;5053979;28;20511;-75
2022/04/30 02:33:55;;;;;;;10.85;5.55;;;8.50;99.90;;;;;;5054150;28;20116;-76
2022/04/30 02:36:26;;;;;;;11.63;5.97;;;8.60;99.90;;;;;;5036208;28;20055;-74
2022/04/30 02:39:00;;;;;;;9.77;6.53;;;8.60;99.90;;;;;;5053720;28;20045;-76
2022/04/30 02:41:28;;;;;;;13.10;5.85;;;8.40;99.90;;;;;;5053865;28;20060;-76
2022/04/30 02:43:54;;;;;;;9.52;5.57;;;8.40;99.90;;;;;;5053981;28;20032;-75
2022/04/30 02:46:23;;;;;;;13.52;6.32;;;8.40;99.90;;;;;;5053687;28;20021;-76
2022/04/30 02:48:49;;;;;;;13.18;6.13;;;8.20;99.90;;;;;;5053756;28;20397;-76
2022/04/30 02:51:15;;;;;;;16.73;7.00;;;8.40;99.90;;;;;;5053768;28;20021;-76
2022/04/30 02:53:43;;;;;;;16.80;7.10;;;8.50;99.90;;;;;;5035601;28;20527;-75
2022/04/30 02:56:12;;;;;;;13.52;6.82;;;8.30;99.90;;;;;;5053764;28;20033;-75
2022/04/30 03:01:23;;;;;;;11.30;5.93;;;8.30;99.90;;;;;;5066924;28;20041;-76
2022/04/30 03:04:06;;;;;;;11.77;6.72;;;8.40;99.90;;;;;;5039809;28;20021;-76
2022/04/30 03:06:35;;;;;;;11.55;6.30;;;8.40;99.90;;;;;;5053301;28;20032;-76
2022/04/30 03:09:04;;;;;;;13.98;6.68;;;8.30;99.90;;;;;;5053544;28;20393;-75
2022/04/30 03:11:31;;;;;;;16.08;6.53;;;8.20;99.90;;;;;;5053578;28;20458;-76
2022/04/30 03:13:57;;;;;;;11.52;6.65;;;8.10;99.90;;;;;;5053413;28;20531;-76
2022/04/30 03:21:54;;;;;;;11.85;7.30;;;8.40;99.90;;;;;;5053011;28;20049;-76
2022/04/30 03:24:20;;;;;;;13.07;7.20;;;8.40;99.90;;;;;;5052878;28;20036;-76
2022/04/30 03:26:47;;;;;;;14.35;7.15;;;8.40;99.90;;;;;;5053395;28;20040;-76
2022/04/30 03:29:15;;;;;;;14.73;7.70;;;8.40;99.90;;;;;;5053095;28;20021;-75
2022/04/30 03:31:41;;;;;;;12.73;7.50;;;8.30;99.90;;;;;;5053485;28;20373;-76
2022/04/30 03:34:12;;;;;;;16.08;7.47;;;8.30;99.90;;;;;;5034813;28;20036;-75
2022/04/30 03:36:38;;;;;;;17.33;8.53;;;8.40;99.90;;;;;;5053229;28;20070;-76
2022/04/30 03:39:05;;;;;;;12.93;8.10;;;8.40;99.90;;;;;;5052895;28;20480;-75
2022/04/30 03:41:31;;;;;;;15.40;8.40;;;8.40;99.90;;;;;;5052977;28;20390;-75
2022/04/30 03:43:57;;;;;;;15.18;9.43;;;8.20;99.90;;;;;;5052937;28;20029;-76
2022/04/30 03:46:23;;;;;;;19.42;8.88;;;8.20;99.90;;;;;;5035116;28;20045;-76
2022/04/30 03:48:53;;;;;;;19.10;8.90;;;8.30;99.90;;;;;;5052738;28;20036;-76
2022/04/30 03:51:21;;;;;;;15.85;9.00;;;8.40;99.90;;;;;;5052546;28;20541;-76
2022/04/30 03:53:46;;;;;;;19.75;10.60;;;8.20;99.90;;;;;;5035033;28;20533;-73
2022/04/30 03:56:13;;;;;;;18.58;9.02;;;8.30;99.90;;;;;;5052758;28;20109;-76
2022/04/30 03:58:39;;;;;;;21.27;9.90;;;8.50;99.90;;;;;;5052888;28;20112;-72
2022/04/30 04:01:05;;;;;;;20.48;10.35;;;8.40;99.90;;;;;;5034935;28;20116;-73
2022/04/30 04:03:32;;;;;;;19.40;10.15;;;8.40;99.90;;;;;;5052642;28;20029;-73
2022/04/30 04:05:58;;;;;;;25.55;10.38;;;8.30;99.90;;;;;;5052255;28;20035;-72
2022/04/30 04:08:25;;;;;;;19.92;10.93;;;8.40;99.90;;;;;;5052494;28;20029;-73
2022/04/30 04:10:51;;;;;;;26.15;12.38;;;8.50;99.90;;;;;;5052580;28;20039;-74
2022/04/30 04:18:45;;;;;;;22.27;12.27;;;8.40;99.90;;;;;;5052254;28;20552;-75
2022/04/30 04:21:11;;;;;;;29.00;12.63;;;8.60;99.90;;;;;;5052430;28;20040;-73
2022/04/30 04:26:29;;;;;;;;;;;8.50;99.90;;;;;;5034916;28;20053;-74
2022/04/30 04:28:55;;;;;;;27.45;14.00;;;8.40;99.90;;;;;;5052546;28;19916;-75
2022/04/30 04:31:22;;;;;;;28.75;14.30;;;8.30;99.90;;;;;;5052330;28;20033;-73
2022/04/30 04:33:56;;;;;;;26.63;13.38;;;8.60;99.90;;;;;;5052207;28;20041;-73
2022/04/30 04:36:22;;;;;;;30.30;14.45;;;8.60;99.90;;;;;;5052548;28;20032;-73
2022/04/30 04:38:47;;;;;;;23.38;14.30;;;8.80;99.90;;;;;;5052395;28;20112;-74
2022/04/30 04:41:13;;;;;;;28.88;13.50;;;8.90;99.90;;;;;;5052157;28;20087;-74
2022/04/30 04:43:39;;;;;;;32.78;14.65;;;8.90;99.90;;;;;;5034390;28;20116;-76
2022/04/30 04:46:06;;;;;;;28.70;16.38;;;8.90;99.90;;;;;;5053445;28;20032;-76
2022/04/30 04:48:32;;;;;;;22.58;15.25;;;9.00;99.90;;;;;;5055813;28;20017;-75
2022/04/30 04:50:59;;;;;;;24.38;14.45;;;9.10;99.90;;;;;;5056010;28;20047;-74
2022/04/30 04:53:25;;;;;;;30.13;14.85;;;9.20;99.90;;;;;;5055953;28;20057;-75
2022/04/30 04:55:51;;;;;;;25.77;15.55;;;9.30;99.90;;;;;;5056167;28;20044;-75
2022/04/30 04:58:17;;;;;;;26.48;14.15;;;9.30;99.90;;;;;;5055927;28;20029;-74
2022/04/30 05:00:42;;;;;;;23.95;14.45;;;9.20;99.90;;;;;;5055873;28;20067;-76
2022/04/30 05:03:09;;;;;;;27.70;12.27;;;9.20;99.90;;;;;;5055340;28;20044;-74
2022/04/30 05:05:35;;;;;;;20.48;12.02;;;9.10;99.90;;;;;;5055670;28;20036;-76
2022/04/30 05:08:01;;;;;;;20.50;11.38;;;9.10;99.90;;;;;;5055858;28;20048;-75
2022/04/30 05:10:27;;;;;;;22.77;10.98;;;8.90;99.90;;;;;;5055743;28;20029;-76
2022/04/30 05:12:54;;;;;;;19.88;10.93;;;9.10;99.90;;;;;;5055475;28;20049;-75
2022/04/30 05:15:20;;;;;;;21.38;10.68;;;9.10;99.90;;;;;;5037926;28;20079;-76
2022/04/30 05:17:46;;;;;;;18.23;10.40;;;9.20;99.90;;;;;;5037530;28;20040;-76
2022/04/30 05:20:11;;;;;;;20.75;11.85;;;9.40;99.90;;;;;;5055698;28;20120;-76
2022/04/30 05:22:37;;;;;;;19.17;11.20;;;9.30;99.90;;;;;;5055399;28;20052;-75
2022/04/30 05:25:03;;;;;;;22.90;11.07;;;9.40;99.90;;;;;;5055513;28;20470;-74
2022/04/30 05:27:29;;;;;;;22.00;11.40;;;9.40;99.90;;;;;;5055363;28;20100;-75
2022/04/30 05:29:55;;;;;;;19.58;10.23;;;9.20;99.90;;;;;;5055480;28;20540;-75
2022/04/30 05:32:20;;;;;;;26.20;12.05;;;9.20;99.90;;;;;;5055021;28;20043;-75
2022/04/30 05:34:46;;;;;;;17.88;10.35;;;9.10;99.90;;;;;;5055329;28;20086;-76
2022/04/30 05:37:12;;;;;;;17.38;11.48;;;9.20;99.90;;;;;;5055101;28;20029;-76
2022/04/30 05:39:38;;;;;;;21.65;11.93;;;9.20;99.90;;;;;;5055218;28;20074;-75
2022/04/30 05:42:04;;;;;;;26.45;12.73;;;9.30;99.90;;;;;;5054869;28;20041;-75
2022/04/30 05:44:30;;;;;;;21.90;11.35;;;9.40;99.90;;;;;;5054937;28;20067;-76
2022/04/30 05:46:56;;;;;;;23.20;11.52;;;9.30;99.90;;;;;;5054765;28;20071;-76
2022/04/30 05:49:22;;;;;;;24.98;10.38;;;9.40;99.90;;;;;;5054854;28;20028;-75
2022/04/30 05:51:49;;;;;;;21.08;9.52;;;9.60;99.90;;;;;;5054982;28;20488;-76
2022/04/30 05:54:16;;;;;;;14.82;8.38;;;9.70;99.90;;;;;;5054790;28;20041;-75
2022/04/30 05:56:41;;;;;;;22.08;8.60;;;9.70;99.90;;;;;;5054473;28;20025;-76
2022/04/30 05:59:08;;;;;;;14.55;7.45;;;9.90;99.90;;;;;;5054821;28;20382;-75
2022/04/30 06:01:34;;;;;;;16.58;7.30;;;10.00;99.90;;;;;;5036902;28;20043;-77
2022/04/30 06:04:00;;;;;;;12.88;7.30;;;10.10;99.90;;;;;;5036655;28;20550;-75
2022/04/30 06:06:26;;;;;;;17.73;8.15;;;10.00;99.90;;;;;;5054361;28;20040;-78
2022/04/30 06:08:52;;;;;;;16.77;7.78;;;10.00;99.90;;;;;;5046749;28;20033;-75
2022/04/30 06:11:17;;;;;;;15.70;7.13;;;9.90;99.90;;;;;;5049057;28;20021;-75
2022/04/30 06:13:43;;;;;;;15.18;7.63;;;9.70;99.90;;;;;;5042085;28;20023;-75
2022/04/30 06:16:09;;;;;;;15.50;7.72;;;9.80;99.90;;;;;;5023782;28;20033;-75
2022/04/30 06:18:35;;;;;;;22.08;8.57;;;9.90;99.90;;;;;;5030450;28;20450;-76
2022/04/30 06:21:01;;;;;;;18.73;7.82;;;10.10;99.90;;;;;;5036734;28;20378;-75
2022/04/30 06:23:27;;;;;;;15.05;8.38;;;10.20;99.90;;;;;;5047384;28;20040;-76
2022/04/30 06:25:53;;;;;;;12.02;8.10;;;10.40;99.90;;;;;;5042901;28;20469;-76
2022/04/30 06:28:19;;;;;;;11.35;7.03;;;10.40;99.90;;;;;;5040300;28;20509;-76
2022/04/30 06:30:45;;;;;;;9.68;7.18;;;10.20;99.90;;;;;;5049942;28;20082;-76
2022/04/30 06:33:11;;;;;;;15.25;6.72;;;10.40;99.90;;;;;;5036158;28;20104;-77
2022/04/30 06:35:37;;;;;;;12.57;7.18;;;10.70;99.90;;;;;;5045988;28;20123;-76
2022/04/30 06:38:04;;;;;;;14.93;7.93;;;11.00;99.90;;;;;;5026240;28;20488;-77
2022/04/30 06:40:31;;;;;;;10.27;6.60;;;10.60;99.90;;;;;;5038289;28;20030;-76
2022/04/30 06:42:58;;;;;;;11.15;6.90;;;10.50;99.90;;;;;;5031707;28;20495;-75
2022/04/30 06:45:23;;;;;;;15.48;6.90;;;10.50;99.90;;;;;;5038552;28;20108;-76
2022/04/30 06:47:49;;;;;;;6.20;4.20;;;10.50;99.90;;;;;;5050664;28;20120;-75
2022/04/30 06:50:15;;;;;;;7.47;3.90;;;10.60;99.90;;;;;;5035461;28;20021;-74
2022/04/30 06:58:10;;;;;;;8.55;4.43;;;10.70;99.90;;;;;;5040707;28;20052;-76
2022/04/30 07:01:26;;;;;;;23.30;19.17;;;10.90;99.90;;;;;;5048519;28;20028;-76
2022/04/30 07:03:29;;;;;;;26.13;23.35;;;10.80;99.90;;;;;;5042601;28;20036;-76
2022/04/30 07:06:03;;;;;;;9.52;6.03;;;10.80;99.90;;;;;;5052076;28;20032;-74
2022/04/30 07:08:33;;;;;;;8.00;5.57;;;10.80;99.90;;;;;;5051634;28;20045;-76
2022/04/30 07:11:00;;;;;;;6.90;5.30;;;10.80;99.90;;;;;;5051323;28;20071;-75
2022/04/30 07:13:26;;;;;;;10.88;5.70;;;10.80;99.90;;;;;;5052881;28;20024;-74
2022/04/30 07:15:52;;;;;;;11.65;4.88;;;10.80;99.90;;;;;;5034328;28;20389;-76
2022/04/30 07:18:17;;;;;;;5.78;4.32;;;10.80;99.90;;;;;;5053202;28;20025;-77
2022/04/30 07:20:43;;;;;;;8.77;5.05;;;10.90;99.90;;;;;;5053012;28;20071;-76
2022/04/30 07:23:09;;;;;;;11.98;5.45;;;10.90;99.90;;;;;;5053438;28;20121;-75
2022/04/30 07:25:35;;;;;;;7.78;4.72;;;11.00;99.90;;;;;;5035201;28;20476;-75
2022/04/30 07:28:00;;;;;;;6.88;5.18;;;11.00;99.90;;;;;;5035074;28;20036;-77
2022/04/30 07:30:26;;;;;;;9.88;6.03;;;11.00;99.90;;;;;;5052948;28;20053;-76
2022/04/30 07:32:52;;;;;;;14.30;5.60;;;11.10;99.90;;;;;;5053486;28;20029;-76
2022/04/30 07:35:19;;;;;;;13.90;6.25;;;11.20;99.90;;;;;;5072913;28;20149;-75
2022/04/30 07:37:45;;;;;;;12.85;7.30;;;11.00;99.90;;;;;;5055116;28;20119;-74
2022/04/30 07:40:11;;;;;;;13.80;7.43;;;10.80;99.90;;;;;;5055023;28;20116;-76
2022/04/30 07:42:37;;;;;;;14.25;8.18;;;10.80;99.90;;;;;;5072727;28;20040;-75
2022/04/30 07:45:03;;;;;;;14.48;7.10;;;10.90;99.90;;;;;;5072837;28;20034;-76
2022/04/30 07:47:29;;;;;;;12.63;7.40;;;11.20;99.90;;;;;;5030910;28;20025;-75
2022/04/30 07:49:55;;;;;;;11.90;7.20;;;11.60;99.90;;;;;;5032095;28;20366;-75
2022/04/30 07:52:21;;;;;;;10.00;6.47;;;12.00;99.90;;;;;;5052004;28;20092;-75
2022/04/30 07:54:47;;;;;;;12.40;7.28;;;12.40;99.90;;;;;;5043263;28;20041;-76
2022/04/30 07:57:12;;;;;;;21.13;14.43;;;12.70;99.90;;;;;;5045046;28;20029;-76
2022/04/30 07:59:38;;;;;;;33.70;20.77;;;13.00;99.90;;;;;;5036236;28;20040;-76
2022/04/30 08:02:04;;;;;;;24.15;10.13;;;13.40;99.90;;;;;;5047968;28;20044;-77
2022/04/30 08:04:30;;;;;;;19.15;13.20;;;13.40;99.90;;;;;;5033227;28;20090;-77
2022/04/30 08:06:56;;;;;;;19.42;13.65;;;13.20;99.90;;;;;;5041224;28;20048;-77
2022/04/30 08:09:22;;;;;;;12.43;8.50;;;13.00;99.90;;;;;;5046451;28;20029;-75
2022/04/30 08:11:48;;;;;;;7.38;4.97;;;12.90;99.90;;;;;;5035103;28;20029;-77
2022/04/30 08:14:14;;;;;;;12.13;5.53;;;12.80;99.90;;;;;;5046740;28;20025;-77
2022/04/30 08:16:39;;;;;;;5.88;4.43;;;12.50;99.90;;;;;;5040488;28;20405;-77
2022/04/30 08:19:05;;;;;;;11.77;4.32;;;12.40;99.90;;;;;;5043353;28;20025;-77
2022/04/30 08:21:31;;;;;;;9.35;5.38;;;12.30;99.90;;;;;;5040311;28;20039;-76
2022/04/30 08:23:57;;;;;;;7.65;4.18;;;12.20;99.90;;;;;;5036789;28;20025;-77
2022/04/30 08:26:22;;;;;;;11.48;4.32;;;11.90;99.90;;;;;;5054277;28;20029;-77
2022/04/30 08:28:48;;;;;;;6.60;4.68;;;12.10;99.90;;;;;;5056052;28;20025;-77
2022/04/30 08:31:14;;;;;;;10.30;4.80;;;12.30;99.90;;;;;;5037447;28;20443;-76
2022/04/30 08:33:39;;;;;;;12.35;5.70;;;12.40;99.90;;;;;;5055723;28;20052;-77
2022/04/30 08:36:06;;;;;;;12.18;5.30;;;12.20;99.90;;;;;;5055886;28;20428;-77
2022/04/30 08:38:32;;;;;;;8.65;4.72;;;12.20;99.90;;;;;;5056292;28;20104;-77
2022/04/30 08:40:57;;;;;;;12.85;4.47;;;12.20;99.90;;;;;;5055895;28;20040;-77
2022/04/30 08:43:23;;;;;;;9.77;4.00;;;12.00;99.90;;;;;;5056214;28;20029;-76
2022/04/30 08:45:49;;;;;;;7.50;3.80;;;12.20;99.90;;;;;;5055988;28;20039;-75
2022/04/30 08:48:16;;;;;;;6.63;3.50;;;12.40;99.90;;;;;;5045943;28;20025;-75
2022/04/30 08:50:45;;;;;;;8.57;4.38;;;12.30;99.90;;;;;;5039115;28;20074;-77
2022/04/30 08:53:12;;;;;;;6.32;3.92;;;12.30;99.90;;;;;;5045914;28;20041;-74
2022/04/30 08:55:38;;;;;;;8.15;3.92;;;12.30;99.90;;;;;;5048197;28;20052;-77
2022/04/30 08:58:04;;;;;;;6.80;4.28;;;12.10;99.90;;;;;;5044215;28;20059;-75
2022/04/30 09:00:30;;;;;;;11.25;4.63;;;12.50;99.90;;;;;;5055141;28;20028;-77
2022/04/30 09:02:59;;;;;;;8.82;5.13;;;12.80;99.90;;;;;;5053966;28;20067;-76
2022/04/30 09:05:35;;;;;;;7.20;3.25;;;13.00;99.80;;;;;;5025805;28;20021;-77
2022/04/30 09:08:01;;;;;;;8.23;3.40;;;13.10;99.30;;;;;;5051349;28;20485;-77
2022/04/30 09:10:29;;;;;;;6.68;4.07;;;12.80;99.40;;;;;;5020760;28;20074;-76
2022/04/30 09:13:05;;;;;;;10.27;4.75;;;12.70;99.90;;;;;;5021265;28;20037;-77
2022/04/30 09:15:31;;;;;;;56.50;29.98;;;12.70;99.90;;;;;;5047113;28;20029;-77
2022/04/30 09:17:59;;;;;;;23.65;14.98;;;12.60;99.90;;;;;;5039367;28;20474;-77
2022/04/30 09:20:25;;;;;;;7.82;5.30;;;12.60;99.90;;;;;;5051451;28;20028;-75
2022/04/30 09:22:51;;;;;;;8.68;6.78;;;12.70;99.90;;;;;;5041628;28;20461;-75
2022/04/30 09:25:18;;;;;;;8.43;4.90;;;12.60;99.70;;;;;;5044422;28;20105;-76
2022/04/30 09:27:53;;;;;;;9.85;5.93;;;12.90;99.30;;;;;;5048508;28;20040;-77
2022/04/30 09:30:29;;;;;;;15.32;6.60;;;13.00;98.70;;;;;;5038391;28;20438;-76
2022/04/30 09:33:03;;;;;;;13.07;8.50;;;12.80;99.40;;;;;;5029350;28;20033;-77
2022/04/30 09:38:15;;;;;;;8.02;4.68;;;14.10;97.30;;;;;;5037604;28;20025;-77
2022/04/30 09:40:51;;;;;;;5.85;3.85;;;14.40;95.40;;;;;;5049391;28;20485;-77
2022/04/30 09:43:17;;;;;;;12.05;4.13;;;14.20;94.50;;;;;;5044746;28;20032;-76
2022/04/30 09:45:43;;;;;;;8.43;4.45;;;14.30;94.50;;;;;;5040813;28;20410;-75
2022/04/30 09:53:57;;;;;;;8.52;5.93;;;13.70;95.80;;;;;;5047048;28;20079;-77
2022/04/30 09:56:40;;;;;;;12.18;6.88;;;13.60;95.90;;;;;;5037729;28;20075;-77
2022/04/30 09:59:11;;;;;;;11.38;6.40;;;13.10;98.20;;;;;;5045772;28;20025;-76
2022/04/30 10:01:42;;;;;;;18.08;6.50;;;12.60;99.70;;;;;;5029339;28;20041;-77
2022/04/30 10:04:13;;;;;;;10.10;6.90;;;12.60;99.90;;;;;;5052390;28;20381;-77
2022/04/30 10:06:44;;;;;;;10.68;6.68;;;12.70;99.90;;;;;;5052740;28;20036;-77
2022/04/30 10:09:13;;;;;;;12.73;5.82;;;13.10;99.90;;;;;;5052943;28;20120;-78
2022/04/30 10:12:11;;;;;;;10.60;5.68;;;13.20;99.90;;;;;;5043684;28;20033;-76
2022/04/30 10:15:16;;;;;;;14.02;6.40;;;13.40;99.80;;;;;;5023070;28;20036;-77
2022/04/30 10:17:46;;;;;;;16.25;6.65;;;14.00;98.60;;;;;;5020807;28;20099;-77
2022/04/30 10:20:16;;;;;;;11.52;5.55;;;14.50;97.60;;;;;;5050543;28;20041;-77
2022/04/30 10:22:53;;;;;;;8.50;5.90;;;14.40;96.70;;;;;;5041053;28;20312;-77
2022/04/30 10:25:32;;;;;;;8.75;4.93;;;14.80;96.60;;;;;;5040921;28;20034;-76
2022/04/30 10:27:57;;;;;;;13.35;5.05;;;15.00;96.20;;;;;;5049821;28;20068;-78
2022/04/30 10:30:24;;;;;;;8.55;4.82;;;14.30;96.00;;;;;;5038307;28;20057;-77
2022/04/30 10:32:59;;;;;;;9.75;4.57;;;13.70;97.10;;;;;;5045062;28;20126;-77
2022/04/30 10:35:36;;;;;;;8.15;4.40;;;13.40;97.90;;;;;;5046214;28;20029;-74
2022/04/30 10:38:28;;;;;;;9.85;4.50;;;13.20;98.40;;;;;;5036565;28;20037;-77
2022/04/30 10:40:58;;;;;;;12.57;5.32;;;13.10;99.70;;;;;;5041466;28;20048;-77
2022/04/30 10:43:32;;;;;;;9.38;5.68;;;13.50;98.90;;;;;;5044446;28;20071;-77
2022/04/30 10:45:58;;;;;;;14.65;5.90;;;13.60;99.40;;;;;;5034949;28;20508;-77
2022/04/30 10:48:25;;;;;;;14.35;8.40;;;13.90;99.30;;;;;;5043172;28;20224;-77
2022/04/30 10:51:42;;;;;;;13.30;5.28;;;14.30;98.70;;;;;;5034506;28;20032;-76
2022/04/30 10:54:13;;;;;;;11.30;5.82;;;14.20;98.30;;;;;;5031048;28;20095;-76
2022/04/30 10:56:39;;;;;;;10.88;5.28;;;14.30;98.20;;;;;;5028476;28;20021;-76
2022/04/30 10:59:06;;;;;;;17.63;6.35;;;13.80;98.80;;;;;;5042951;28;20089;-76
2022/04/30 11:01:32;;;;;;;9.18;4.90;;;13.60;99.90;;;;;;5038963;28;20048;-75
2022/04/30 11:03:59;;;;;;;8.00;4.95;;;14.10;99.00;;;;;;5032060;28;20025;-76
2022/04/30 11:06:27;;;;;;;12.95;5.50;;;14.40;99.20;;;;;;5052617;28;20121;-76
2022/04/30 11:09:00;;;;;;;8.23;4.40;;;14.90;96.50;;;;;;5044170;28;20029;-76
2022/04/30 11:11:27;;;;;;;9.93;4.70;;;15.30;97.00;;;;;;5045832;28;20405;-75
2022/04/30 11:14:03;;;;;;;7.68;4.65;;;16.10;95.60;;;;;;5036241;28;20037;-76
2022/04/30 11:16:35;;;;;;;11.75;4.55;;;16.30;94.10;;;;;;5047702;28;20448;-75
2022/04/30 11:19:08;;;;;;;7.70;5.20;;;15.80;93.80;;;;;;5032973;28;20033;-75
2022/04/30 11:21:35;;;;;;;5.05;4.13;;;15.10;95.40;;;;;;5051066;28;20040;-75
2022/04/30 11:24:03;;;;;;;8.60;3.90;;;15.30;94.80;;;;;;5051508;28;20017;-75
2022/04/30 11:26:30;;;;;;;9.30;4.50;;;14.80;94.50;;;;;;5052056;28;20483;-74
2022/04/30 11:28:56;;;;;;;8.63;4.50;;;14.20;96.30;;;;;;5051658;28;20492;-75
2022/04/30 11:31:22;;;;;;;8.45;4.10;;;14.30;96.70;;;;;;5046718;28;20048;-74
2022/04/30 11:33:49;;;;;;;8.20;4.30;;;14.50;96.10;;;;;;5048821;28;20386;-75
2022/04/30 11:36:14;;;;;;;9.80;4.20;;;14.80;95.70;;;;;;5035222;28;20029;-75
2022/04/30 11:38:50;;;;;;;10.95;4.38;;;14.80;95.80;;;;;;5035446;28;20037;-75
2022/04/30 11:41:15;;;;;;;5.80;3.65;;;15.50;94.80;;;;;;5014460;28;20474;-75
2022/04/30 11:43:41;;;;;;;5.28;3.38;;;16.10;94.20;;;;;;5031623;28;20025;-75
2022/04/30 11:46:07;;;;;;;8.45;3.65;;;16.50;92.30;;;;;;5032202;28;20029;-75
2022/04/30 11:48:39;;;;;;;10.90;3.90;;;16.50;91.80;;;;;;5037823;28;20017;-75
2022/04/30 11:51:08;;;;;;;6.80;2.90;;;17.30;91.30;;;;;;5044407;28;20029;-74
2022/04/30 11:53:36;;;;;;;5.88;2.90;;;18.10;90.60;;;;;;5050781;28;20082;-75
2022/04/30 11:56:02;;;;;;;4.43;2.70;;;17.90;88.80;;;;;;5050760;28;20432;-75
2022/04/30 11:58:40;;;;;;;5.18;2.65;;;17.40;88.60;;;;;;5051361;28;20033;-74
2022/04/30 12:01:05;;;;;;;8.45;4.22;;;16.70;90.20;;;;;;5049574;28;20083;-74
2022/04/30 12:03:31;;;;;;;11.55;3.60;;;15.90;91.90;;;;;;5034684;28;20049;-75
2022/04/30 12:05:57;;;;;;;9.25;3.70;;;15.40;93.00;;;;;;5030194;28;20480;-74
2022/04/30 12:08:29;;;;;;;11.73;3.45;;;15.00;93.50;;;;;;5051722;28;20916;-75
2022/04/30 12:10:56;;;;;;;16.50;3.30;;;14.10;94.20;;;;;;5050670;28;20052;-74
2022/04/30 12:13:25;;;;;;;5.40;2.85;;;13.90;93.80;;;;;;5051246;28;20420;-75
2022/04/30 12:16:17;;;;;;;6.25;3.58;;;13.70;94.30;;;;;;5052240;28;20432;-74
2022/04/30 12:24:43;;;;;;;9.55;4.43;;;14.10;94.90;;;;;;5051503;28;20029;-75
2022/04/30 12:27:10;;;;;;;7.72;3.80;;;14.00;95.60;;;;;;5052175;28;20044;-75
2022/04/30 12:29:37;;;;;;;8.63;4.20;;;14.20;96.10;;;;;;5052441;28;20017;-76
2022/04/30 12:32:04;;;;;;;11.75;4.13;;;14.20;95.80;;;;;;5052119;28;20029;-76
2022/04/30 12:34:37;;;;;;;8.80;4.78;;;13.70;97.90;;;;;;5034363;28;20370;-76
2022/04/30 12:37:03;;;;;;;5.85;3.92;;;13.70;98.70;;;;;;5051970;28;20029;-76
2022/04/30 12:39:29;;;;;;;7.90;3.78;;;13.60;98.70;;;;;;5052395;28;20393;-76
2022/04/30 12:41:59;;;;;;;12.73;3.78;;;13.60;98.80;;;;;;5052107;28;20037;-76
2022/04/30 12:44:25;;;;;;;10.00;4.07;;;13.60;99.70;;;;;;5051802;28;20096;-75
2022/04/30 12:46:51;;;;;;;11.90;3.50;;;13.90;99.20;;;;;;5051790;28;20378;-76
2022/04/30 12:49:18;;;;;;;8.15;3.38;;;14.10;98.70;;;;;;5034138;28;20041;-76
2022/04/30 12:51:45;;;;;;;9.48;3.55;;;13.90;97.90;;;;;;5051738;28;20041;-76
2022/04/30 12:54:13;;;;;;;9.73;3.83;;;13.40;98.40;;;;;;5032529;28;20025;-75
2022/04/30 12:56:40;;;;;;;7.47;3.80;;;13.30;99.70;;;;;;5046998;28;20025;-76
2022/04/30 12:59:07;;;;;;;9.23;3.72;;;13.50;99.50;;;;;;5051379;28;20110;-76
2022/04/30 13:01:34;;;;;;;9.65;3.55;;;13.90;99.70;;;;;;5044349;28;21187;-76
2022/04/30 13:04:01;;;;;;;6.20;3.53;;;13.90;98.90;;;;;;5043082;28;20033;-75
2022/04/30 13:06:27;;;;;;;7.90;4.47;;;13.90;98.80;;;;;;5052027;28;20032;-76
2022/04/30 13:14:21;;;;;;;4.97;3.25;;;14.20;97.00;;;;;;5049508;28;20034;-75
2022/04/30 13:16:49;;;;;;;7.35;3.67;;;14.00;97.80;;;;;;5041554;28;20044;-74
2022/04/30 13:19:15;;;;;;;9.50;4.20;;;14.10;98.10;;;;;;5032778;28;20021;-75
2022/04/30 13:21:41;;;;;;;5.97;3.40;;;14.20;97.80;;;;;;5048031;28;20048;-75
2022/04/30 13:24:08;;;;;;;7.40;3.95;;;14.30;98.40;;;;;;5047018;28;20468;-76
2022/04/30 13:26:33;;;;;;;10.90;3.92;;;14.10;97.30;;;;;;5051370;28;20053;-76
2022/04/30 13:28:59;;;;;;;12.95;4.03;;;13.80;98.30;;;;;;5052488;28;20111;-74
2022/04/30 13:31:25;;;;;;;5.25;3.33;;;13.50;99.20;;;;;;5051143;28;20037;-75
2022/04/30 13:33:51;;;;;;;12.98;5.28;;;13.50;99.30;;;;;;5051513;28;20021;-76
2022/04/30 13:36:16;;;;;;;7.07;3.58;;;13.80;98.80;;;;;;5035544;28;20021;-76